createdAt,value
2018-07-16T00:01:33.133Z,94210.13
2018-07-16T00:04:02.307Z,94215.50
2018-07-16T00:06:31.418Z,94219.94
2018-07-16T00:09:00.432Z,94222.23
2018-07-16T00:11:29.506Z,94219.50
2018-07-16T00:14:01.615Z,94218.19
2018-07-16T00:16:30.681Z,94213.23
2018-07-16T00:18:59.809Z,94211.93
2018-07-16T00:21:28.905Z,94215.67
2018-07-16T00:23:58.081Z,94217.33
2018-07-16T00:26:27.179Z,94208.84
2018-07-16T00:28:56.265Z,94210.12
2018-07-16T00:31:25.365Z,94209.36
2018-07-16T00:33:54.475Z,94212.53
2018-07-16T00:36:23.553Z,94207.50
2018-07-16T00:38:52.605Z,94208.37
2018-07-16T00:41:21.713Z,94212.40
2018-07-16T00:43:50.836Z,94213.27
2018-07-16T00:46:19.783Z,94206.10
2018-07-16T00:48:48.942Z,94211.76
2018-07-16T00:51:18.017Z,94210.81
2018-07-16T00:53:47.122Z,94208.12
2018-07-16T00:56:16.170Z,94203.92
2018-07-16T00:58:45.217Z,94205.63
2018-07-16T01:01:14.287Z,94206.14
2018-07-16T01:03:43.333Z,94204.16
2018-07-16T01:06:12.412Z,94199.59
2018-07-16T01:08:41.496Z,94192.45
2018-07-16T01:11:10.579Z,94186.91
2018-07-16T01:13:39.721Z,94184.24
2018-07-16T01:16:09.083Z,94178.37
2018-07-16T01:18:38.478Z,94173.57
2018-07-16T01:21:07.996Z,94176.32
2018-07-16T01:23:37.669Z,94171.70
2018-07-16T01:26:07.231Z,94168.08
2018-07-16T01:28:36.660Z,94166.49
2018-07-16T01:31:06.003Z,94160.48
2018-07-16T01:33:36.122Z,94160.01
2018-07-16T01:36:05.200Z,94160.80
2018-07-16T01:38:34.488Z,94171.24
2018-07-16T01:41:03.841Z,94171.61
2018-07-16T01:43:33.011Z,94172.36
2018-07-16T01:46:02.231Z,94180.05
2018-07-16T01:48:31.283Z,94181.64
2018-07-16T01:51:00.481Z,94178.80
2018-07-16T01:53:29.612Z,94176.88
2018-07-16T01:55:58.725Z,94172.64
2018-07-16T01:58:27.700Z,94180.56
2018-07-16T02:00:58.950Z,94187.23
2018-07-16T02:03:30.370Z,94178.70
2018-07-16T02:05:59.673Z,94189.28
2018-07-16T02:08:29.133Z,94187.09
2018-07-16T02:10:58.564Z,94186.75
2018-07-16T02:13:27.604Z,94179.77
2018-07-16T02:15:56.658Z,94184.02
2018-07-16T02:18:25.658Z,94176.96
2018-07-16T02:20:55.898Z,94176.82
2018-07-16T02:23:24.926Z,94174.45
2018-07-16T02:25:53.986Z,94174.12
2018-07-16T02:28:23.000Z,94166.16
2018-07-16T02:30:52.026Z,94170.36
2018-07-16T02:33:21.237Z,94166.02
2018-07-16T02:35:50.338Z,94169.98
2018-07-16T02:38:19.382Z,94170.49
2018-07-16T02:40:48.379Z,94169.42
2018-07-16T02:43:17.417Z,94165.97
2018-07-16T02:45:46.433Z,94167.88
2018-07-16T02:48:15.539Z,94171.97
2018-07-16T02:50:44.556Z,94180.36
2018-07-16T02:53:13.606Z,94173.81
2018-07-16T02:55:42.617Z,94169.75
2018-07-16T02:58:11.756Z,94170.07
2018-07-16T03:00:40.848Z,94167.52
2018-07-16T03:03:09.893Z,94152.50
2018-07-16T03:05:38.888Z,94163.97
2018-07-16T03:08:08.845Z,94164.33
2018-07-16T03:10:37.812Z,94159.11
2018-07-16T03:13:07.311Z,94162.34
2018-07-16T03:15:36.282Z,94164.30
2018-07-16T03:18:05.397Z,94171.66
2018-07-16T03:20:34.434Z,94167.00
2018-07-16T03:23:03.505Z,94165.73
2018-07-16T03:25:32.623Z,94153.56
2018-07-16T03:28:01.873Z,94149.42
2018-07-16T03:30:31.028Z,94138.78
2018-07-16T03:33:00.138Z,94130.97
2018-07-16T03:35:29.357Z,94130.49
2018-07-16T03:37:58.508Z,94136.12
2018-07-16T03:40:27.665Z,94137.48
2018-07-16T03:42:56.801Z,94147.55
2018-07-16T03:45:25.912Z,94144.75
2018-07-16T03:47:55.097Z,94146.06
2018-07-16T03:50:24.254Z,94137.99
2018-07-16T03:52:53.756Z,94137.91
2018-07-16T03:55:23.010Z,94134.45
2018-07-16T03:57:52.342Z,94137.67
2018-07-16T04:00:21.517Z,94147.66
2018-07-16T04:02:50.565Z,94154.55
2018-07-16T04:05:19.806Z,94147.14
2018-07-16T04:07:48.870Z,94153.94
2018-07-16T04:10:17.896Z,94162.38
2018-07-16T04:12:47.183Z,94172.69
2018-07-16T04:15:16.237Z,94173.75
2018-07-16T04:17:45.558Z,94176.92
2018-07-16T04:20:15.011Z,94175.89
2018-07-16T04:22:44.285Z,94175.11
2018-07-16T04:25:13.676Z,94183.69
2018-07-16T04:27:43.063Z,94183.45
2018-07-16T04:30:12.358Z,94187.15
2018-07-16T04:32:41.925Z,94193.67
2018-07-16T04:35:11.314Z,94200.72
2018-07-16T04:37:40.701Z,94197.36
2018-07-16T04:40:10.083Z,94202.25
2018-07-16T04:42:39.437Z,94191.58
2018-07-16T04:45:08.946Z,94189.14
2018-07-16T04:47:38.428Z,94186.25
2018-07-16T04:50:07.672Z,94195.91
2018-07-16T04:52:37.054Z,94196.46
2018-07-16T04:55:06.532Z,94188.49
2018-07-16T04:57:35.948Z,94185.00
2018-07-16T05:00:05.745Z,94189.17
2018-07-16T05:02:35.145Z,94187.09
2018-07-16T05:05:04.812Z,94178.19
2018-07-16T05:07:34.139Z,94182.20
2018-07-16T05:10:03.613Z,94181.82
2018-07-16T05:12:32.920Z,94179.64
2018-07-16T05:15:02.289Z,94179.96
2018-07-16T05:17:31.756Z,94176.59
2018-07-16T05:20:01.154Z,94173.70
2018-07-16T05:22:30.575Z,94173.19
2018-07-16T05:25:00.003Z,94171.96
2018-07-16T05:27:29.388Z,94169.42
2018-07-16T05:29:59.210Z,94176.23
2018-07-16T05:32:28.721Z,94181.06
2018-07-16T05:34:58.032Z,94184.56
2018-07-16T05:37:27.353Z,94185.26
2018-07-16T05:39:56.693Z,94182.37
2018-07-16T05:42:26.155Z,94181.39
2018-07-16T05:44:55.824Z,94173.03
2018-07-16T05:47:25.102Z,94171.22
2018-07-16T05:49:54.437Z,94159.66
2018-07-16T05:52:23.800Z,94148.05
2018-07-16T05:54:53.198Z,94145.77
2018-07-16T05:57:23.109Z,94146.42
2018-07-16T05:59:53.025Z,94146.78
2018-07-16T06:02:22.553Z,94146.20
2018-07-16T06:04:51.907Z,94142.94
2018-07-16T06:07:21.278Z,94143.90
2018-07-16T06:09:50.684Z,94141.53
2018-07-16T06:12:19.856Z,94145.44
2018-07-16T06:14:49.028Z,94141.67
2018-07-16T06:17:18.601Z,94140.88
2018-07-16T06:19:47.812Z,94139.96
2018-07-16T06:22:17.231Z,94130.98
2018-07-16T06:24:46.526Z,94128.02
2018-07-16T06:27:15.895Z,94125.11
2018-07-16T06:29:45.366Z,94121.98
2018-07-16T06:32:14.915Z,94125.75
2018-07-16T06:34:44.526Z,94122.34
2018-07-16T06:37:14.722Z,94116.09
2018-07-16T06:39:44.321Z,94110.18
2018-07-16T06:42:13.727Z,94110.25
2018-07-16T06:44:43.288Z,94114.48
2018-07-16T06:47:12.710Z,94115.33
2018-07-16T06:49:42.251Z,94107.34
2018-07-16T06:52:11.740Z,94108.23
2018-07-16T06:54:41.368Z,94105.12
2018-07-16T06:57:10.673Z,94104.68
2018-07-16T06:59:40.148Z,94101.72
2018-07-16T07:02:09.650Z,94101.23
2018-07-16T07:04:38.948Z,94096.51
2018-07-16T07:07:08.394Z,94092.82
2018-07-16T07:09:37.754Z,94100.16
2018-07-16T07:12:07.009Z,94089.70
2018-07-16T07:14:36.302Z,94087.07
2018-07-16T07:17:05.818Z,94081.81
2018-07-16T07:19:35.020Z,94080.73
2018-07-16T07:22:04.420Z,94079.94
2018-07-16T07:24:34.199Z,94075.41
2018-07-16T07:27:03.564Z,94082.72
2018-07-16T07:29:34.254Z,94077.08
2018-07-16T07:32:03.912Z,94081.26
2018-07-16T07:34:33.308Z,94071.66
2018-07-16T07:37:02.685Z,94071.59
2018-07-16T07:39:32.527Z,94069.72
2018-07-16T07:42:02.147Z,94068.02
2018-07-16T07:44:31.575Z,94062.74
2018-07-16T07:47:01.703Z,94067.80
2018-07-16T07:49:31.172Z,94064.20
2018-07-16T07:52:00.872Z,94062.92
2018-07-16T07:54:30.710Z,94057.77
2018-07-16T07:57:00.824Z,94056.23
2018-07-16T07:59:29.918Z,94058.25
2018-07-16T08:01:59.626Z,94055.67
2018-07-16T08:04:28.737Z,94046.34
2018-07-16T08:07:02.978Z,94048.74
2018-07-16T08:09:33.530Z,94040.47
2018-07-16T08:12:02.814Z,94034.99
2018-07-16T08:14:32.606Z,94031.60
2018-07-16T08:17:01.754Z,94024.22
2018-07-16T08:19:30.869Z,94025.92
2018-07-16T08:22:00.027Z,94020.20
2018-07-16T08:24:30.188Z,94018.27
2018-07-16T08:26:59.383Z,94026.25
2018-07-16T08:29:28.488Z,94023.30
2018-07-16T08:31:57.597Z,94015.86
2018-07-16T08:34:26.810Z,94018.87
2018-07-16T08:36:55.828Z,94014.56
2018-07-16T08:39:24.940Z,94007.08
2018-07-16T08:41:53.924Z,94011.30
2018-07-16T08:44:23.002Z,94006.62
2018-07-16T08:46:53.208Z,94003.99
2018-07-16T08:49:22.873Z,94004.13
2018-07-16T08:51:52.197Z,93999.20
2018-07-16T08:54:21.943Z,94000.12
2018-07-16T08:56:51.389Z,93993.70
2018-07-16T08:59:20.789Z,93990.67
2018-07-16T09:01:50.066Z,93989.11
2018-07-16T09:04:19.387Z,93989.20
2018-07-16T09:06:48.800Z,93988.02
2018-07-16T09:09:18.082Z,93983.61
2018-07-16T09:11:47.448Z,93987.45
2018-07-16T09:14:16.820Z,93992.88
2018-07-16T09:16:45.827Z,93989.38
2018-07-16T09:19:15.396Z,93977.81
2018-07-16T09:21:44.931Z,93981.92
2018-07-16T09:24:14.379Z,93979.40
2018-07-16T09:26:43.798Z,93985.30
2018-07-16T09:29:13.923Z,93982.69
2018-07-16T09:31:43.363Z,93980.91
2018-07-16T09:34:12.668Z,93986.75
2018-07-16T09:36:42.007Z,93982.92
2018-07-16T09:39:11.723Z,93985.48
2018-07-16T09:41:41.034Z,93983.31
2018-07-16T09:44:10.708Z,93986.31
2018-07-16T09:46:40.728Z,93983.66
2018-07-16T09:49:10.109Z,93986.17
2018-07-16T09:51:39.627Z,93982.38
2018-07-16T09:54:09.016Z,93970.14
2018-07-16T09:56:38.541Z,93971.02
2018-07-16T09:59:07.974Z,93971.27
2018-07-16T10:01:42.292Z,93959.33
2018-07-16T10:04:12.287Z,93955.36
2018-07-16T10:06:41.618Z,93950.58
2018-07-16T10:09:11.138Z,93961.66
2018-07-16T10:11:40.536Z,93959.28
2018-07-16T10:14:09.790Z,93956.48
2018-07-16T10:16:39.202Z,93947.49
2018-07-16T10:19:08.608Z,93956.25
2018-07-16T10:21:37.994Z,93955.53
2018-07-16T10:24:07.393Z,93948.86
2018-07-16T10:26:36.869Z,93948.00
2018-07-16T10:29:06.433Z,93947.25
2018-07-16T10:31:35.975Z,93946.77
2018-07-16T10:34:05.324Z,93951.98
2018-07-16T10:36:34.396Z,93946.77
2018-07-16T10:39:05.356Z,93949.78
2018-07-16T10:41:34.660Z,93934.11
2018-07-16T10:44:03.848Z,93942.03
2018-07-16T10:46:33.075Z,93937.01
2018-07-16T10:49:02.383Z,93946.41
2018-07-16T10:51:31.475Z,93946.05
2018-07-16T10:54:00.744Z,93941.72
2018-07-16T10:56:30.089Z,93943.30
2018-07-16T10:58:59.127Z,93935.75
2018-07-16T11:01:28.518Z,93938.27
2018-07-16T11:03:58.076Z,93928.87
2018-07-16T11:06:27.353Z,93936.16
2018-07-16T11:08:56.624Z,93929.01
2018-07-16T11:11:25.902Z,93928.84
2018-07-16T11:13:55.209Z,93929.47
2018-07-16T11:16:24.465Z,93928.70
2018-07-16T11:18:53.805Z,93931.74
2018-07-16T11:21:23.086Z,93931.45
2018-07-16T11:23:52.164Z,93938.94
2018-07-16T11:26:22.250Z,93937.52
2018-07-16T11:28:51.312Z,93939.09
2018-07-16T11:31:20.336Z,93941.20
2018-07-16T11:33:49.518Z,93929.56
2018-07-16T11:36:18.913Z,93938.16
2018-07-16T11:38:48.387Z,93942.40
2018-07-16T11:41:17.567Z,93938.42
2018-07-16T11:43:47.852Z,93933.00
2018-07-16T11:46:17.180Z,93932.37
2018-07-16T11:48:46.698Z,93939.00
2018-07-16T11:51:15.797Z,93940.05
2018-07-16T11:53:45.004Z,93933.67
2018-07-16T11:56:15.530Z,93918.86
2018-07-16T11:58:44.620Z,93932.35
2018-07-16T12:01:13.676Z,93929.41
2018-07-16T12:03:43.180Z,93926.90
2018-07-16T12:06:18.588Z,93925.20
2018-07-16T12:08:47.644Z,93925.25
2018-07-16T12:11:17.785Z,93917.39
2018-07-16T12:13:46.849Z,93916.05
2018-07-16T12:16:16.037Z,93913.94
2018-07-16T12:18:45.238Z,93898.13
2018-07-16T12:21:14.366Z,93907.66
2018-07-16T12:23:43.394Z,93907.38
2018-07-16T12:26:12.403Z,93903.96
2018-07-16T12:28:41.473Z,93909.53
2018-07-16T12:31:10.635Z,93909.70
2018-07-16T12:33:39.692Z,93910.89
2018-07-16T12:36:08.870Z,93911.55
2018-07-16T12:38:37.930Z,93912.69
2018-07-16T12:41:07.005Z,93912.47
2018-07-16T12:43:36.061Z,93912.25
2018-07-16T12:46:05.092Z,93899.31
2018-07-16T12:48:34.118Z,93898.09
2018-07-16T12:51:03.146Z,93892.58
2018-07-16T12:53:32.138Z,93881.80
2018-07-16T12:56:01.249Z,93889.14
2018-07-16T12:58:30.269Z,93905.47
2018-07-16T13:00:59.314Z,93904.88
2018-07-16T13:03:28.287Z,93906.87
2018-07-16T13:05:57.285Z,93900.72
2018-07-16T13:08:26.357Z,93894.70
2018-07-16T13:10:55.765Z,93895.93
2018-07-16T13:13:24.872Z,93891.71
2018-07-16T13:15:53.945Z,93889.98
2018-07-16T13:18:23.088Z,93892.64
2018-07-16T13:20:53.156Z,93901.05
2018-07-16T13:23:22.220Z,93896.59
2018-07-16T13:25:51.280Z,93898.89
2018-07-16T13:28:21.570Z,93894.97
2018-07-16T13:30:50.727Z,93892.13
2018-07-16T13:33:19.817Z,93888.63
2018-07-16T13:35:49.075Z,93880.03
2018-07-16T13:38:18.274Z,93881.31
2018-07-16T13:40:47.294Z,93873.84
2018-07-16T13:43:16.358Z,93882.72
2018-07-16T13:45:45.363Z,93879.25
2018-07-16T13:48:14.472Z,93876.84
2018-07-16T13:50:43.607Z,93863.17
2018-07-16T13:53:12.799Z,93863.02
2018-07-16T13:55:41.904Z,93856.38
2018-07-16T13:58:11.005Z,93860.34
2018-07-16T14:00:40.033Z,93853.78
2018-07-16T14:03:10.795Z,93850.67
2018-07-16T14:05:39.824Z,93852.06
2018-07-16T14:08:09.107Z,93855.45
2018-07-16T14:10:38.445Z,93851.38
2018-07-16T14:13:07.726Z,93853.54
2018-07-16T14:15:36.851Z,93845.95
2018-07-16T14:18:05.928Z,93845.91
2018-07-16T14:20:34.970Z,93847.69
2018-07-16T14:23:03.994Z,93850.58
2018-07-16T14:25:33.079Z,93845.40
2018-07-16T14:28:02.999Z,93851.42
2018-07-16T14:30:32.058Z,93861.23
2018-07-16T14:33:01.258Z,93864.78
2018-07-16T14:35:30.561Z,93866.59
2018-07-16T14:37:59.677Z,93869.54
2018-07-16T14:40:28.768Z,93873.81
2018-07-16T14:42:57.903Z,93868.05
2018-07-16T14:45:27.070Z,93877.15
2018-07-16T14:47:56.267Z,93874.53
2018-07-16T14:50:25.537Z,93869.34
2018-07-16T14:52:54.648Z,93864.48
2018-07-16T14:55:23.959Z,93852.08
2018-07-16T14:57:53.191Z,93852.75
2018-07-16T15:00:22.292Z,93850.13
2018-07-16T15:02:51.503Z,93842.98
2018-07-16T15:05:20.855Z,93840.41
2018-07-16T15:07:49.950Z,93834.00
2018-07-16T15:10:18.975Z,93828.08
2018-07-16T15:12:48.167Z,93827.00
2018-07-16T15:15:17.186Z,93822.55
2018-07-16T15:17:46.403Z,93817.41
2018-07-16T15:20:16.486Z,93818.03
2018-07-16T15:22:45.567Z,93822.30
2018-07-16T15:25:14.713Z,93821.58
2018-07-16T15:27:43.753Z,93828.14
2018-07-16T15:30:12.822Z,93819.87
2018-07-16T15:32:41.897Z,93818.96
2018-07-16T15:35:10.889Z,93822.41
2018-07-16T15:37:40.043Z,93817.29
2018-07-16T15:40:09.115Z,93817.77
2018-07-16T15:42:38.209Z,93819.52
2018-07-16T15:45:07.281Z,93824.93
2018-07-16T15:47:36.383Z,93828.61
2018-07-16T15:50:05.469Z,93824.98
2018-07-16T15:52:34.558Z,93823.24
2018-07-16T15:55:03.677Z,93818.83
2018-07-16T15:57:32.816Z,93819.07
2018-07-16T16:00:02.307Z,93819.64
2018-07-16T16:02:31.309Z,93820.23
2018-07-16T16:05:00.384Z,93814.91
2018-07-16T16:07:33.400Z,93807.80
2018-07-16T16:10:03.799Z,93822.45
2018-07-16T16:12:32.927Z,93833.55
2018-07-16T16:15:01.979Z,93836.53
2018-07-16T16:17:31.242Z,93836.53
2018-07-16T16:20:00.259Z,93832.63
2018-07-16T16:22:29.363Z,93841.73
2018-07-16T16:24:58.431Z,93843.41
2018-07-16T16:27:27.452Z,93832.13
2018-07-16T16:29:56.547Z,93830.05
2018-07-16T16:32:25.558Z,93830.17
2018-07-16T16:34:54.771Z,93831.73
2018-07-16T16:37:24.170Z,93824.75
2018-07-16T16:39:53.426Z,93825.44
2018-07-16T16:42:22.603Z,93814.45
2018-07-16T16:44:51.656Z,93817.98
2018-07-16T16:47:20.813Z,93822.95
2018-07-16T16:49:50.032Z,93821.72
2018-07-16T16:52:19.747Z,93823.03
2018-07-16T16:54:48.929Z,93825.10
2018-07-16T16:57:17.945Z,93825.55
2018-07-16T16:59:47.016Z,93823.64
2018-07-16T17:02:15.976Z,93822.04
2018-07-16T17:04:45.049Z,93819.56
2018-07-16T17:07:14.131Z,93821.19
2018-07-16T17:09:43.284Z,93809.68
2018-07-16T17:12:12.476Z,93808.50
2018-07-16T17:14:41.607Z,93802.27
2018-07-16T17:17:11.241Z,93798.25
2018-07-16T17:19:40.289Z,93795.91
2018-07-16T17:22:09.537Z,93798.38
2018-07-16T17:24:38.723Z,93796.47
2018-07-16T17:27:07.834Z,93793.62
2018-07-16T17:29:37.225Z,93798.33
2018-07-16T17:32:06.297Z,93799.20
2018-07-16T17:34:35.450Z,93794.95
2018-07-16T17:37:05.322Z,93794.42
2018-07-16T17:39:34.322Z,93795.33
2018-07-16T17:42:03.427Z,93795.03
2018-07-16T17:44:32.580Z,93797.17
2018-07-16T17:47:01.619Z,93793.94
2018-07-16T17:49:30.778Z,93798.22
2018-07-16T17:51:59.981Z,93797.61
2018-07-16T17:54:29.144Z,93799.17
2018-07-16T17:56:58.262Z,93794.80
2018-07-16T17:59:28.191Z,93798.76
2018-07-16T18:01:57.411Z,93806.55
2018-07-16T18:04:26.683Z,93807.44
2018-07-16T18:06:56.010Z,93809.83
2018-07-16T18:09:25.316Z,93814.05
2018-07-16T18:11:54.502Z,93802.27
2018-07-16T18:14:23.717Z,93804.05
2018-07-16T18:16:52.809Z,93806.22
2018-07-16T18:19:22.007Z,93808.93
2018-07-16T18:21:51.062Z,93800.73
2018-07-16T18:24:20.192Z,93805.79
2018-07-16T18:26:49.349Z,93806.77
2018-07-16T18:29:18.416Z,93814.03
2018-07-16T18:31:47.474Z,93807.87
2018-07-16T18:34:16.551Z,93806.90
2018-07-16T18:36:45.864Z,93810.02
2018-07-16T18:39:16.069Z,93816.23
2018-07-16T18:41:45.216Z,93810.71
2018-07-16T18:44:14.265Z,93810.32
2018-07-16T18:46:43.404Z,93805.16
2018-07-16T18:49:12.489Z,93808.12
2018-07-16T18:51:41.686Z,93807.80
2018-07-16T18:54:10.780Z,93803.75
2018-07-16T18:56:39.978Z,93807.77
2018-07-16T18:59:09.404Z,93812.56
2018-07-16T19:01:38.646Z,93818.09
2018-07-16T19:04:08.077Z,93819.48
2018-07-16T19:06:38.130Z,93826.33
2018-07-16T19:09:08.097Z,93829.20
2018-07-16T19:11:37.414Z,93828.09
2018-07-16T19:14:06.575Z,93828.11
2018-07-16T19:16:35.892Z,93831.83
2018-07-16T19:19:05.193Z,93818.75
2018-07-16T19:21:34.372Z,93816.66
2018-07-16T19:24:03.621Z,93819.88
2018-07-16T19:26:33.427Z,93813.37
2018-07-16T19:29:02.671Z,93826.80
2018-07-16T19:31:32.675Z,93823.95
2018-07-16T19:34:01.833Z,93824.58
2018-07-16T19:36:31.122Z,93814.92
2018-07-16T19:39:00.534Z,93815.14
2018-07-16T19:41:30.390Z,93818.85
2018-07-16T19:43:59.756Z,93814.34
2018-07-16T19:46:29.067Z,93824.18
2018-07-16T19:48:58.475Z,93823.05
2018-07-16T19:51:27.770Z,93826.02
2018-07-16T19:53:57.059Z,93828.86
2018-07-16T19:56:26.399Z,93831.99
2018-07-16T19:58:55.926Z,93830.75
2018-07-16T20:01:25.052Z,93833.33
2018-07-16T20:03:54.310Z,93851.83
2018-07-16T20:06:23.350Z,93848.70
2018-07-16T20:08:52.899Z,93847.66
2018-07-16T20:11:22.049Z,93853.95
2018-07-16T20:13:52.315Z,93854.23
2018-07-16T20:16:22.379Z,93856.91
2018-07-16T20:18:51.762Z,93857.44
2018-07-16T20:21:22.344Z,93864.02
2018-07-16T20:23:51.513Z,93850.70
2018-07-16T20:26:20.858Z,93875.85
2018-07-16T20:28:49.918Z,93877.44
2018-07-16T20:31:19.247Z,93876.91
2018-07-16T20:33:48.261Z,93880.36
2018-07-16T20:36:17.441Z,93877.74
2018-07-16T20:38:46.515Z,93879.06
2018-07-16T20:41:15.581Z,93882.94
2018-07-16T20:43:44.614Z,93876.30
2018-07-16T20:46:13.979Z,93871.78
2018-07-16T20:48:43.151Z,93859.98
2018-07-16T20:51:12.292Z,93868.14
2018-07-16T20:53:41.382Z,93860.48
2018-07-16T20:56:10.498Z,93858.42
2018-07-16T20:58:39.656Z,93859.98
2018-07-16T21:01:08.851Z,93862.09
2018-07-16T21:03:37.948Z,93869.16
2018-07-16T21:06:07.017Z,93868.91
2018-07-16T21:08:36.056Z,93856.31
2018-07-16T21:11:05.960Z,93852.63
2018-07-16T21:13:34.993Z,93857.61
2018-07-16T21:16:04.173Z,93857.37
2018-07-16T21:18:33.393Z,93856.86
2018-07-16T21:21:02.796Z,93851.70
2018-07-16T21:23:31.867Z,93856.20
2018-07-16T21:26:00.958Z,93854.37
2018-07-16T21:28:29.998Z,93854.67
2018-07-16T21:30:59.118Z,93853.09
2018-07-16T21:33:28.158Z,93853.06
2018-07-16T21:35:57.233Z,93858.05
2018-07-16T21:38:26.357Z,93857.53
2018-07-16T21:40:55.380Z,93851.74
2018-07-16T21:43:24.520Z,93847.81
2018-07-16T21:45:53.694Z,93854.94
2018-07-16T21:48:22.724Z,93855.43
2018-07-16T21:50:51.985Z,93848.11
2018-07-16T21:53:21.055Z,93852.05
2018-07-16T21:55:50.121Z,93853.09
2018-07-16T21:58:19.568Z,93857.83
2018-07-16T22:00:49.449Z,93861.25
2018-07-16T22:03:18.590Z,93857.87
2018-07-16T22:05:48.096Z,93865.97
2018-07-16T22:08:17.496Z,93876.77
2018-07-16T22:10:46.590Z,93874.40
2018-07-16T22:13:15.986Z,93867.31
2018-07-16T22:15:45.918Z,93865.48
2018-07-16T22:18:14.941Z,93874.13
2018-07-16T22:20:44.487Z,93878.63
2018-07-16T22:23:13.743Z,93873.64
2018-07-16T22:25:43.102Z,93874.16
2018-07-16T22:28:12.492Z,93884.62
2018-07-16T22:30:42.095Z,93883.84
2018-07-16T22:33:11.115Z,93883.05
2018-07-16T22:35:40.519Z,93886.97
2018-07-16T22:38:10.210Z,93878.60
2018-07-16T22:40:39.599Z,93883.05
2018-07-16T22:43:09.242Z,93879.36
2018-07-16T22:45:38.299Z,93877.28
2018-07-16T22:48:07.259Z,93877.78
2018-07-16T22:50:36.277Z,93878.84
2018-07-16T22:53:05.349Z,93878.82
2018-07-16T22:55:34.314Z,93872.26
2018-07-16T22:58:03.315Z,93876.44
2018-07-16T23:00:32.359Z,93885.34
2018-07-16T23:03:01.383Z,93880.88
2018-07-16T23:05:30.559Z,93886.38
2018-07-16T23:07:59.653Z,93893.17
2018-07-16T23:10:28.661Z,93890.03
2018-07-16T23:12:57.720Z,93890.25
2018-07-16T23:15:26.729Z,93895.81
2018-07-16T23:17:56.871Z,93903.13
2018-07-16T23:20:26.582Z,93904.44
2018-07-16T23:22:56.627Z,93904.16
2018-07-16T23:25:25.641Z,93900.25
2018-07-16T23:27:54.952Z,93883.44
2018-07-16T23:30:24.050Z,93891.32
2018-07-16T23:32:53.049Z,93887.36
2018-07-16T23:35:22.025Z,93886.52
2018-07-16T23:37:51.082Z,93883.72
2018-07-16T23:40:20.146Z,93884.49
2018-07-16T23:42:49.176Z,93887.84
2018-07-16T23:45:18.324Z,93884.39
2018-07-16T23:47:47.763Z,93882.26
2018-07-16T23:50:17.301Z,93883.84
2018-07-16T23:52:46.334Z,93885.95
2018-07-16T23:55:15.359Z,93885.73
2018-07-16T23:57:44.314Z,93890.23
